createdAt,value
2022-08-01T00:00:14.523Z,4.97
2022-08-01T00:03:03.647Z,5.18
2022-08-01T00:05:33.116Z,4.45
2022-08-01T00:08:02.271Z,5.35
2022-08-01T00:10:32.667Z,4.70
2022-08-01T00:13:05.495Z,4.70
2022-08-01T00:15:34.861Z,4.65
2022-08-01T00:18:03.976Z,3.97
2022-08-01T00:20:33.338Z,4.72
2022-08-01T00:23:04.155Z,5.05
2022-08-01T00:25:34.840Z,4.70
2022-08-01T00:28:04.415Z,4.38
2022-08-01T00:30:33.655Z,4.22
2022-08-01T00:33:02.591Z,4.03
2022-08-01T00:35:31.814Z,4.07
2022-08-01T00:38:00.836Z,4.72
2022-08-01T00:40:30.109Z,4.47
2022-08-01T00:43:00.724Z,5.57
2022-08-01T00:45:29.968Z,3.85
2022-08-01T00:47:59.254Z,3.97
2022-08-01T00:50:28.898Z,4.13
2022-08-01T00:52:59.909Z,3.72
2022-08-01T00:55:29.820Z,3.80
2022-08-01T00:58:05.103Z,4.60
2022-08-01T01:00:52.018Z,3.85
2022-08-01T01:03:49.336Z,3.83
2022-08-01T01:06:36.872Z,4.03
2022-08-01T01:09:30.915Z,4.30
2022-08-01T01:12:10.281Z,3.97
2022-08-01T01:14:47.689Z,3.80
2022-08-01T01:17:31.192Z,3.80
2022-08-01T01:20:14.134Z,3.92
2022-08-01T01:23:08.419Z,3.47
2022-08-01T01:25:55.677Z,3.13
2022-08-01T01:28:35.700Z,3.60
2022-08-01T01:31:08.775Z,3.72
2022-08-01T01:36:18.867Z,2.95
2022-08-01T01:38:50.365Z,3.47
2022-08-01T01:41:20.303Z,3.55
2022-08-01T01:43:50.442Z,3.30
2022-08-01T01:46:24.857Z,2.67
2022-08-01T01:48:56.174Z,3.30
2022-08-01T01:51:27.517Z,3.38
2022-08-01T01:53:58.934Z,3.25
2022-08-01T01:56:30.820Z,3.55
2022-08-01T01:59:03.593Z,3.35
2022-08-01T02:01:58.324Z,3.20
2022-08-01T02:04:27.497Z,3.00
2022-08-01T02:06:57.971Z,2.70
2022-08-01T02:09:30.048Z,2.78
2022-08-01T02:12:08.615Z,3.00
2022-08-01T02:14:41.009Z,2.90
2022-08-01T02:17:14.296Z,2.70
2022-08-01T02:19:43.865Z,3.40
2022-08-01T02:22:16.387Z,3.00
2022-08-01T02:24:51.583Z,3.00
2022-08-01T02:27:27.895Z,2.60
2022-08-01T02:30:02.431Z,3.33
2022-08-01T02:35:09.729Z,2.83
2022-08-01T02:37:45.211Z,2.80
2022-08-01T02:40:18.933Z,3.25
2022-08-01T02:42:52.421Z,3.00
2022-08-01T02:45:26.590Z,3.35
2022-08-01T02:48:03.223Z,2.50
2022-08-01T02:50:34.350Z,2.70
2022-08-01T02:53:06.110Z,2.58
2022-08-01T02:55:36.509Z,2.80
2022-08-01T02:58:06.664Z,2.78
2022-08-01T03:00:36.782Z,2.95
2022-08-01T03:03:10.675Z,2.92
2022-08-01T03:05:41.866Z,3.17
2022-08-01T03:08:14.854Z,2.70
2022-08-01T03:15:59.411Z,3.13
2022-08-01T03:18:32.324Z,2.58
2022-08-01T03:21:03.687Z,2.65
2022-08-01T03:23:38.269Z,2.72
2022-08-01T03:26:09.583Z,2.70
2022-08-01T03:28:40.795Z,2.70
2022-08-01T03:31:11.167Z,3.03
2022-08-01T03:33:41.855Z,2.78
2022-08-01T03:36:14.077Z,2.92
2022-08-01T03:38:45.433Z,2.70
2022-08-01T03:41:18.111Z,2.72
2022-08-01T03:43:54.144Z,3.20
2022-08-01T03:46:35.704Z,2.80
2022-08-01T03:49:13.435Z,2.30
2022-08-01T03:51:43.477Z,2.72
2022-08-01T03:54:15.133Z,3.13
2022-08-01T03:56:45.706Z,2.90
2022-08-01T03:59:16.871Z,3.13
2022-08-01T04:01:47.055Z,2.28
2022-08-01T04:04:18.501Z,2.42
2022-08-01T04:06:51.295Z,2.58
2022-08-01T04:09:21.024Z,3.08
2022-08-01T04:11:50.545Z,2.38
2022-08-01T04:14:19.990Z,2.78
2022-08-01T04:16:49.327Z,2.60
2022-08-01T04:19:20.158Z,2.42
2022-08-01T04:21:49.612Z,2.22
2022-08-01T04:24:21.919Z,1.95
2022-08-01T04:26:53.069Z,2.58
2022-08-01T04:29:25.129Z,2.15
2022-08-01T04:31:57.735Z,2.60
2022-08-01T04:34:30.783Z,2.25
2022-08-01T04:37:02.276Z,2.10
2022-08-01T04:39:50.701Z,2.47
2022-08-01T04:42:26.802Z,2.13
2022-08-01T04:45:04.869Z,2.33
2022-08-01T04:47:34.933Z,1.80
2022-08-01T04:50:09.175Z,2.03
2022-08-01T04:52:39.670Z,1.90
2022-08-01T04:55:11.791Z,2.47
2022-08-01T04:57:44.927Z,2.08
2022-08-01T05:00:15.099Z,2.33
2022-08-01T05:02:43.979Z,3.00
2022-08-01T05:05:14.809Z,2.22
2022-08-01T05:07:45.682Z,2.00
2022-08-01T05:10:15.134Z,2.03
2022-08-01T05:12:44.312Z,2.10
2022-08-01T05:15:15.717Z,2.22
2022-08-01T05:17:44.996Z,1.85
2022-08-01T05:20:15.958Z,2.22
2022-08-01T05:22:45.445Z,2.00
2022-08-01T05:25:14.593Z,2.22
2022-08-01T05:27:51.079Z,2.17
2022-08-01T05:30:20.212Z,1.90
2022-08-01T05:32:49.262Z,2.22
2022-08-01T05:35:19.955Z,2.03
2022-08-01T05:37:48.877Z,1.98
2022-08-01T05:40:17.816Z,1.85
2022-08-01T05:42:47.036Z,1.60
2022-08-01T05:45:16.094Z,2.08
2022-08-01T05:47:44.948Z,2.20
2022-08-01T05:50:14.313Z,1.98
2022-08-01T05:52:44.823Z,2.08
2022-08-01T05:55:14.040Z,1.85
2022-08-01T05:57:43.130Z,2.35
2022-08-01T06:00:13.854Z,2.10
2022-08-01T06:02:44.545Z,1.80
2022-08-01T06:05:13.914Z,2.30
2022-08-01T06:07:44.288Z,2.25
2022-08-01T06:10:13.419Z,1.92
2022-08-01T06:12:42.668Z,2.08
2022-08-01T06:15:12.530Z,1.90
2022-08-01T06:17:42.354Z,1.80
2022-08-01T06:20:12.837Z,2.05
2022-08-01T06:22:43.303Z,1.90
2022-08-01T06:25:12.688Z,3.08
2022-08-01T06:27:41.753Z,1.90
2022-08-01T06:30:11.491Z,1.95
2022-08-01T06:32:40.746Z,2.10
2022-08-01T06:35:10.364Z,1.65
2022-08-01T06:37:39.273Z,1.50
2022-08-01T06:40:16.649Z,2.03
2022-08-01T06:42:46.986Z,1.73
2022-08-01T06:45:16.880Z,1.65
2022-08-01T06:47:50.655Z,1.60
2022-08-01T06:50:20.617Z,1.30
2022-08-01T06:52:49.639Z,1.50
2022-08-01T06:55:20.780Z,1.58
2022-08-01T06:57:51.705Z,1.27
2022-08-01T07:00:23.563Z,1.50
2022-08-01T07:02:53.290Z,1.35
2022-08-01T07:05:24.300Z,1.30
2022-08-01T07:07:53.935Z,1.20
2022-08-01T07:10:24.366Z,1.17
2022-08-01T07:12:53.656Z,1.45
2022-08-01T07:15:27.361Z,2.03
2022-08-01T07:17:58.053Z,1.58
2022-08-01T07:20:27.266Z,1.98
2022-08-01T07:22:56.440Z,1.40
2022-08-01T07:25:26.922Z,1.45
2022-08-01T07:27:56.427Z,1.42
2022-08-01T07:30:25.587Z,1.30
2022-08-01T07:32:54.555Z,1.25
2022-08-01T07:35:23.918Z,1.42
2022-08-01T07:37:54.158Z,1.45
2022-08-01T07:40:23.497Z,1.45
2022-08-01T07:42:54.071Z,1.10
2022-08-01T07:45:23.435Z,1.00
2022-08-01T07:47:52.584Z,1.15
2022-08-01T07:50:21.863Z,1.20
2022-08-01T07:52:50.958Z,1.08
2022-08-01T07:55:20.006Z,0.88
2022-08-01T07:57:49.041Z,1.00
2022-08-01T08:00:20.457Z,1.10
2022-08-01T08:02:49.518Z,1.30
2022-08-01T08:05:59.031Z,1.10
2022-08-01T08:08:08.511Z,1.15
2022-08-01T08:10:37.887Z,1.15
2022-08-01T08:13:06.920Z,1.08
2022-08-01T08:15:40.175Z,1.25
2022-08-01T08:18:09.540Z,1.10
2022-08-01T08:20:38.437Z,1.20
2022-08-01T08:23:43.276Z,1.00
2022-08-01T08:26:13.221Z,0.70
2022-08-01T08:28:42.759Z,0.75
2022-08-01T08:31:25.329Z,1.10
2022-08-01T08:34:02.668Z,1.00
2022-08-01T08:36:32.258Z,0.95
2022-08-01T08:39:01.814Z,1.20
2022-08-01T08:41:37.706Z,1.20
2022-08-01T08:44:10.359Z,1.05
2022-08-01T08:46:45.061Z,1.10
2022-08-01T08:49:17.668Z,0.88
2022-08-01T08:51:50.011Z,0.90
2022-08-01T08:54:21.821Z,1.02
2022-08-01T08:56:52.783Z,1.02
2022-08-01T08:59:23.013Z,1.00
2022-08-01T09:01:56.559Z,1.10
2022-08-01T09:04:27.164Z,0.82
2022-08-01T09:06:57.398Z,0.90
2022-08-01T09:09:26.732Z,1.05
2022-08-01T09:11:58.153Z,1.20
2022-08-01T09:14:31.587Z,1.00
2022-08-01T09:17:09.657Z,1.00
2022-08-01T09:19:41.823Z,0.80
2022-08-01T09:22:12.869Z,0.90
2022-08-01T09:24:43.205Z,0.98
2022-08-01T09:27:25.141Z,0.73
2022-08-01T09:30:01.586Z,0.93
2022-08-01T09:32:37.485Z,0.85
2022-08-01T09:35:36.479Z,1.00
2022-08-01T09:38:20.391Z,0.80
2022-08-01T09:40:53.423Z,1.02
2022-08-01T09:43:24.276Z,0.82
2022-08-01T09:45:55.225Z,0.80
2022-08-01T09:48:27.830Z,1.00
2022-08-01T09:51:03.953Z,1.08
2022-08-01T09:53:51.710Z,1.10
2022-08-01T09:56:24.003Z,0.82
2022-08-01T09:59:00.007Z,0.80
2022-08-01T10:01:43.533Z,0.80
2022-08-01T10:04:15.622Z,0.95
2022-08-01T10:06:50.711Z,0.80
2022-08-01T10:09:39.682Z,0.70
2022-08-01T10:12:15.688Z,1.13
2022-08-01T10:17:19.827Z,1.00
2022-08-01T10:19:55.598Z,1.05
2022-08-01T10:22:31.011Z,1.60
2022-08-01T10:25:06.429Z,1.30
2022-08-01T10:27:40.974Z,0.75
2022-08-01T10:30:19.770Z,0.77
2022-08-01T10:32:54.987Z,2.80
2022-08-01T10:35:47.241Z,3.00
2022-08-01T10:38:15.272Z,1.05
2022-08-01T10:40:45.316Z,1.30
2022-08-01T10:43:21.923Z,1.10
2022-08-01T10:45:52.963Z,1.40
2022-08-01T10:48:29.722Z,1.25
2022-08-01T10:51:02.667Z,1.00
2022-08-01T10:53:42.825Z,1.20
2022-08-01T10:56:12.861Z,1.23
2022-08-01T10:58:46.603Z,0.75
2022-08-01T11:04:16.117Z,1.10
2022-08-01T11:06:55.817Z,1.00
2022-08-01T11:09:36.485Z,0.63
2022-08-01T11:12:13.478Z,0.85
2022-08-01T11:15:29.194Z,1.00
2022-08-01T11:18:02.482Z,1.85
2022-08-01T11:20:34.160Z,1.42
2022-08-01T11:23:36.385Z,1.10
2022-08-01T11:26:15.015Z,1.23
2022-08-01T11:29:19.882Z,1.48
2022-08-01T11:31:49.877Z,1.10
2022-08-01T11:34:19.722Z,1.33
2022-08-01T11:36:58.938Z,1.10
2022-08-01T11:39:30.226Z,1.00
2022-08-01T11:42:21.269Z,1.20
2022-08-01T11:44:52.362Z,1.00
2022-08-01T11:47:36.610Z,1.23
2022-08-01T11:50:06.921Z,1.13
2022-08-01T11:52:37.278Z,1.10
2022-08-01T11:55:11.900Z,1.10
2022-08-01T11:57:45.967Z,0.93
2022-08-01T12:00:20.514Z,1.08
2022-08-01T12:02:59.997Z,1.00
2022-08-01T12:05:31.643Z,1.05
2022-08-01T12:08:01.550Z,0.98
2022-08-01T12:10:47.038Z,1.00
2022-08-01T12:13:20.472Z,1.15
2022-08-01T12:15:56.247Z,1.00
2022-08-01T12:18:26.220Z,1.30
2022-08-01T12:21:05.753Z,1.15
2022-08-01T12:23:35.120Z,0.90
2022-08-01T12:26:06.436Z,1.20
2022-08-01T12:28:42.421Z,1.38
2022-08-01T12:31:12.751Z,3.33
2022-08-01T12:33:42.101Z,1.15
2022-08-01T12:36:14.684Z,1.60
2022-08-01T12:38:44.291Z,1.40
2022-08-01T12:41:15.502Z,1.40
2022-08-01T12:43:45.082Z,1.30
2022-08-01T12:46:18.380Z,0.93
2022-08-01T12:48:47.878Z,1.00
2022-08-01T12:51:17.270Z,0.90
2022-08-01T12:53:47.946Z,0.90
2022-08-01T12:56:18.323Z,1.00
2022-08-01T12:58:48.357Z,1.05
2022-08-01T13:01:17.949Z,1.00
2022-08-01T13:04:01.277Z,1.15
2022-08-01T13:06:32.381Z,1.10
2022-08-01T13:09:08.615Z,0.90
2022-08-01T13:11:39.422Z,0.95
2022-08-01T13:14:32.298Z,0.90
2022-08-01T13:17:01.804Z,0.90
2022-08-01T13:19:45.061Z,1.08
2022-08-01T13:22:14.205Z,0.93
2022-08-01T13:24:43.665Z,1.00
2022-08-01T13:27:26.346Z,1.40
2022-08-01T13:29:55.489Z,1.00
2022-08-01T13:32:29.850Z,1.20
2022-08-01T13:35:05.341Z,1.10
2022-08-01T13:37:38.723Z,1.08
2022-08-01T13:40:10.369Z,1.00
2022-08-01T13:42:40.946Z,5.38
2022-08-01T13:45:14.831Z,2.03
2022-08-01T13:48:03.673Z,1.08
2022-08-01T13:50:34.274Z,1.30
2022-08-01T13:53:03.858Z,1.10
2022-08-01T13:55:35.169Z,1.20
2022-08-01T13:58:06.635Z,1.10
2022-08-01T14:00:35.937Z,1.20
2022-08-01T14:03:05.320Z,1.02
2022-08-01T14:05:34.527Z,1.20
2022-08-01T14:08:03.723Z,1.20
2022-08-01T14:10:33.783Z,0.90
2022-08-01T14:13:02.990Z,0.90
2022-08-01T14:15:39.789Z,1.05
2022-08-01T14:18:10.996Z,1.52
2022-08-01T14:20:41.498Z,1.15
2022-08-01T14:23:11.248Z,0.90
2022-08-01T14:26:05.256Z,1.05
2022-08-01T14:28:31.241Z,1.00
2022-08-01T14:31:02.406Z,1.20
2022-08-01T14:33:31.939Z,0.98
2022-08-01T14:36:25.943Z,1.00
2022-08-01T14:38:52.739Z,1.00
2022-08-01T14:41:21.861Z,0.90
2022-08-01T14:43:51.725Z,1.20
2022-08-01T14:46:22.351Z,1.10
2022-08-01T14:48:51.493Z,1.17
2022-08-01T14:51:20.620Z,1.38
2022-08-01T14:53:50.960Z,1.00
2022-08-01T14:56:22.172Z,1.30
2022-08-01T14:58:52.289Z,1.85
2022-08-01T15:01:22.793Z,1.50
2022-08-01T15:03:52.426Z,1.00
2022-08-01T15:06:21.331Z,1.00
2022-08-01T15:08:50.364Z,1.38
2022-08-01T15:11:19.566Z,1.25
2022-08-01T15:14:09.352Z,1.00
2022-08-01T15:16:40.289Z,0.90
2022-08-01T15:19:10.252Z,1.15
2022-08-01T15:21:41.916Z,0.80
2022-08-01T15:24:11.982Z,1.10
2022-08-01T15:26:41.415Z,1.35
2022-08-01T15:29:11.825Z,1.40
2022-08-01T15:31:42.538Z,2.80
2022-08-01T15:34:12.151Z,1.17
2022-08-01T15:36:43.490Z,4.90
2022-08-01T15:39:13.222Z,1.60
2022-08-01T15:41:42.319Z,1.15
2022-08-01T15:44:11.489Z,1.58
2022-08-01T15:46:42.110Z,1.30
2022-08-01T15:49:11.837Z,1.00
2022-08-01T15:51:41.012Z,1.42
2022-08-01T15:54:14.617Z,1.27
2022-08-01T15:56:44.157Z,1.90
2022-08-01T15:59:15.523Z,1.27
2022-08-01T16:01:46.237Z,1.20
2022-08-01T16:04:21.206Z,1.10
2022-08-01T16:06:56.283Z,0.88
2022-08-01T16:09:25.639Z,1.52
2022-08-01T16:11:56.061Z,1.13
2022-08-01T16:14:25.204Z,1.65
2022-08-01T16:16:55.877Z,0.93
2022-08-01T16:19:25.805Z,1.67
2022-08-01T16:21:55.042Z,1.58
2022-08-01T16:24:24.111Z,0.93
2022-08-01T16:26:52.937Z,1.48
2022-08-01T16:29:22.384Z,1.95
2022-08-01T16:31:57.221Z,1.30
2022-08-01T16:34:44.541Z,1.13
2022-08-01T16:37:16.595Z,2.42
2022-08-01T16:39:45.963Z,1.50
2022-08-01T16:42:16.799Z,1.30
2022-08-01T16:44:46.132Z,0.95
2022-08-01T16:47:19.245Z,1.13
2022-08-01T16:49:49.937Z,1.20
2022-08-01T16:52:20.552Z,1.17
2022-08-01T16:54:49.779Z,1.70
2022-08-01T16:57:18.698Z,1.77
2022-08-01T16:59:47.902Z,1.20
2022-08-01T17:02:17.378Z,1.00
2022-08-01T17:04:46.479Z,0.93
2022-08-01T17:07:16.905Z,1.35
2022-08-01T17:09:45.998Z,1.20
2022-08-01T17:12:22.319Z,1.58
2022-08-01T17:14:52.277Z,1.17
2022-08-01T17:17:22.360Z,0.90
2022-08-01T17:19:52.105Z,1.10
2022-08-01T17:22:22.543Z,1.25
2022-08-01T17:24:52.656Z,1.40
2022-08-01T17:27:22.112Z,1.30
2022-08-01T17:29:51.281Z,1.50
2022-08-01T17:32:20.309Z,1.23
2022-08-01T17:34:50.136Z,1.55
2022-08-01T17:37:19.416Z,2.10
2022-08-01T17:39:49.694Z,2.00
2022-08-01T17:42:18.853Z,2.20
2022-08-01T17:44:49.233Z,3.95
2022-08-01T17:47:48.123Z,2.25
2022-08-01T17:50:13.094Z,2.58
2022-08-01T17:52:42.388Z,2.17
2022-08-01T17:55:53.218Z,1.80
2022-08-01T17:58:09.974Z,1.27
2022-08-01T18:00:39.521Z,1.75
2022-08-01T18:03:08.495Z,2.60
2022-08-01T18:05:38.485Z,3.10
2022-08-01T18:08:08.050Z,1.70
2022-08-01T18:10:39.797Z,2.00
2022-08-01T18:13:09.437Z,1.83
2022-08-01T18:15:38.728Z,3.00
2022-08-01T18:18:08.575Z,2.65
2022-08-01T18:20:39.000Z,3.38
2022-08-01T18:23:11.218Z,2.63
2022-08-01T18:25:42.361Z,2.13
2022-08-01T18:28:19.569Z,2.60
2022-08-01T18:31:00.529Z,2.78
2022-08-01T18:33:30.052Z,4.60
2022-08-01T18:36:03.852Z,3.40
2022-08-01T18:38:35.205Z,2.90
2022-08-01T18:41:10.542Z,3.00
2022-08-01T18:43:40.186Z,2.92
2022-08-01T18:46:10.034Z,4.00
2022-08-01T18:48:39.488Z,3.65
2022-08-01T18:51:11.004Z,3.60
2022-08-01T18:53:42.317Z,3.88
2022-08-01T18:56:17.612Z,3.78
2022-08-01T18:58:47.521Z,4.43
2022-08-01T19:01:16.725Z,5.70
2022-08-01T19:03:46.103Z,7.30
2022-08-01T19:06:15.615Z,6.65
2022-08-01T19:08:47.486Z,6.13
2022-08-01T19:11:18.297Z,4.97
2022-08-01T19:13:47.687Z,5.47
2022-08-01T19:16:17.586Z,5.55
2022-08-01T19:18:46.979Z,4.85
2022-08-01T19:21:19.906Z,4.35
2022-08-01T19:24:06.539Z,4.70
2022-08-01T19:26:38.121Z,5.03
2022-08-01T19:29:15.471Z,4.75
2022-08-01T19:31:49.054Z,4.43
2022-08-01T19:34:26.504Z,4.25
2022-08-01T19:36:58.500Z,4.07
2022-08-01T19:39:28.917Z,3.90
2022-08-01T19:42:00.347Z,3.70
2022-08-01T19:44:31.088Z,4.22
2022-08-01T19:47:02.062Z,3.30
2022-08-01T19:49:33.131Z,3.20
2022-08-01T19:52:04.760Z,2.88
2022-08-01T19:54:36.569Z,2.80
2022-08-01T19:57:09.745Z,3.13
2022-08-01T19:59:39.645Z,3.05
2022-08-01T20:02:09.394Z,2.30
2022-08-01T20:04:38.674Z,2.40
2022-08-01T20:07:08.506Z,2.72
2022-08-01T20:09:41.378Z,3.35
2022-08-01T20:12:13.330Z,3.92
2022-08-01T20:14:44.044Z,6.88
2022-08-01T20:17:15.684Z,5.50
2022-08-01T20:19:46.498Z,5.25
2022-08-01T20:22:17.615Z,4.55
2022-08-01T20:24:50.134Z,4.55
2022-08-01T20:27:25.360Z,4.22
2022-08-01T20:29:58.269Z,6.07
2022-08-01T20:32:32.064Z,4.80
2022-08-01T20:35:07.266Z,4.45
2022-08-01T20:38:05.426Z,4.45
2022-08-01T20:40:36.539Z,5.40
2022-08-01T20:43:08.495Z,4.63
2022-08-01T20:45:37.522Z,4.13
2022-08-01T20:48:09.245Z,4.85
2022-08-01T20:50:57.390Z,3.90
2022-08-01T20:53:28.033Z,3.83
2022-08-01T20:56:04.479Z,4.22
2022-08-01T20:58:58.467Z,3.63
2022-08-01T21:01:30.950Z,4.22
2022-08-01T21:04:36.729Z,3.38
2022-08-01T21:07:18.260Z,3.38
2022-08-01T21:10:04.395Z,3.20
2022-08-01T21:12:44.901Z,2.85
2022-08-01T21:15:28.254Z,3.38
2022-08-01T21:18:03.156Z,2.92
2022-08-01T21:20:35.838Z,3.40
2022-08-01T21:23:15.748Z,3.13
2022-08-01T21:25:45.518Z,3.28
2022-08-01T21:28:15.800Z,3.88
2022-08-01T21:30:55.564Z,3.80
2022-08-01T21:33:26.550Z,3.50
2022-08-01T21:36:02.733Z,3.25
2022-08-01T21:38:37.120Z,2.95
2022-08-01T21:41:09.386Z,4.70
2022-08-01T21:43:39.789Z,3.70
2022-08-01T21:46:11.943Z,3.35
2022-08-01T21:48:42.766Z,3.42
2022-08-01T21:51:28.020Z,4.20
2022-08-01T21:54:07.233Z,3.42
2022-08-01T21:56:49.787Z,3.78
2022-08-01T21:59:29.575Z,3.33
2022-08-01T22:02:04.659Z,3.58
2022-08-01T22:04:42.165Z,3.40
2022-08-01T22:07:14.620Z,3.90
2022-08-01T22:09:46.982Z,3.50
2022-08-01T22:12:18.633Z,3.45
2022-08-01T22:14:54.249Z,4.07
2022-08-01T22:17:26.154Z,3.38
2022-08-01T22:19:56.340Z,4.13
2022-08-01T22:22:50.831Z,3.50
2022-08-01T22:25:16.460Z,3.85
2022-08-01T22:28:07.927Z,4.03
2022-08-01T22:30:41.490Z,3.40
2022-08-01T22:33:16.575Z,3.58
2022-08-01T22:35:47.700Z,3.40
2022-08-01T22:38:19.857Z,4.93
2022-08-01T22:40:51.654Z,4.00
2022-08-01T22:43:30.091Z,3.75
2022-08-01T22:46:11.514Z,3.83
2022-08-01T22:48:47.576Z,3.80
2022-08-01T22:51:33.360Z,3.45
2022-08-01T22:54:07.260Z,3.63
2022-08-01T22:56:40.148Z,3.53
2022-08-01T22:59:15.798Z,3.72
2022-08-01T23:01:50.591Z,3.53
2022-08-01T23:07:06.933Z,3.30
2022-08-01T23:09:53.498Z,3.30
2022-08-01T23:12:26.886Z,3.45
2022-08-01T23:14:57.487Z,3.38
2022-08-01T23:17:29.228Z,3.30
2022-08-01T23:20:02.380Z,3.45
2022-08-01T23:22:33.715Z,3.75
2022-08-01T23:25:06.464Z,3.70
2022-08-01T23:27:57.835Z,3.28
2022-08-01T23:30:29.618Z,3.40
2022-08-01T23:32:59.790Z,3.08
2022-08-01T23:35:31.885Z,2.80
2022-08-01T23:38:04.899Z,3.05
2022-08-01T23:40:35.318Z,2.70
2022-08-01T23:43:06.463Z,2.90
2022-08-01T23:46:02.623Z,2.85
2022-08-01T23:48:34.831Z,3.13
2022-08-01T23:51:06.849Z,2.83
2022-08-01T23:53:38.375Z,2.78
2022-08-01T23:56:07.963Z,2.83
2022-08-01T23:58:37.151Z,3.10
